sensor_id;sensor_type;location;lat;lon;timestamp;P1;durP1;ratioP1;P2;durP2;ratioP2
17818;SDS011;9034;50.284;19.310;2023-04-24T00:00:56;21.90;;;15.15;;
17818;SDS011;9034;50.284;19.310;2023-04-24T00:01:58;20.67;;;15.02;;
17818;SDS011;9034;50.284;19.310;2023-04-24T00:03:02;19.02;;;15.10;;
17818;SDS011;9034;50.284;19.310;2023-04-24T00:04:04;18.52;;;13.63;;
17818;SDS011;9034;50.284;19.310;2023-04-24T00:05:08;19.60;;;14.25;;
17818;SDS011;9034;50.284;19.310;2023-04-24T00:06:10;19.17;;;14.18;;
17818;SDS011;9034;50.284;19.310;2023-04-24T00:07:14;17.75;;;13.40;;
17818;SDS011;9034;50.284;19.310;2023-04-24T00:08:17;18.20;;;13.75;;
17818;SDS011;9034;50.284;19.310;2023-04-24T00:09:20;21.20;;;14.27;;
17818;SDS011;9034;50.284;19.310;2023-04-24T00:10:22;18.67;;;13.18;;
17818;SDS011;9034;50.284;19.310;2023-04-24T00:11:25;21.30;;;14.23;;
17818;SDS011;9034;50.284;19.310;2023-04-24T00:12:27;21.98;;;14.20;;
17818;SDS011;9034;50.284;19.310;2023-04-24T00:13:31;21.85;;;15.35;;
17818;SDS011;9034;50.284;19.310;2023-04-24T00:14:32;26.10;;;16.27;;
17818;SDS011;9034;50.284;19.310;2023-04-24T00:15:37;21.67;;;16.20;;
17818;SDS011;9034;50.284;19.310;2023-04-24T00:16:39;22.90;;;16.15;;
17818;SDS011;9034;50.284;19.310;2023-04-24T00:17:42;19.33;;;14.60;;
17818;SDS011;9034;50.284;19.310;2023-04-24T00:18:44;23.67;;;16.33;;
17818;SDS011;9034;50.284;19.310;2023-04-24T00:19:49;25.20;;;15.88;;
17818;SDS011;9034;50.284;19.310;2023-04-24T00:20:52;21.40;;;15.32;;
17818;SDS011;9034;50.284;19.310;2023-04-24T00:21:55;18.73;;;15.68;;
17818;SDS011;9034;50.284;19.310;2023-04-24T00:22:57;22.50;;;14.88;;
17818;SDS011;9034;50.284;19.310;2023-04-24T00:24:00;19.45;;;14.88;;
17818;SDS011;9034;50.284;19.310;2023-04-24T00:25:02;19.20;;;14.80;;
17818;SDS011;9034;50.284;19.310;2023-04-24T00:26:05;18.33;;;13.35;;
17818;SDS011;9034;50.284;19.310;2023-04-24T00:27:06;17.98;;;14.18;;
17818;SDS011;9034;50.284;19.310;2023-04-24T00:28:09;23.58;;;14.25;;
17818;SDS011;9034;50.284;19.310;2023-04-24T00:29:11;18.85;;;13.63;;
17818;SDS011;9034;50.284;19.310;2023-04-24T00:30:14;20.88;;;13.43;;
17818;SDS011;9034;50.284;19.310;2023-04-24T00:31:17;17.20;;;13.73;;
17818;SDS011;9034;50.284;19.310;2023-04-24T00:32:20;22.40;;;14.27;;
17818;SDS011;9034;50.284;19.310;2023-04-24T00:33:23;18.73;;;13.50;;
17818;SDS011;9034;50.284;19.310;2023-04-24T00:34:25;16.85;;;13.25;;
17818;SDS011;9034;50.284;19.310;2023-04-24T00:35:28;18.73;;;12.63;;
17818;SDS011;9034;50.284;19.310;2023-04-24T00:36:30;20.80;;;14.25;;
17818;SDS011;9034;50.284;19.310;2023-04-24T00:37:33;19.98;;;13.80;;
17818;SDS011;9034;50.284;19.310;2023-04-24T00:38:36;19.02;;;15.18;;
17818;SDS011;9034;50.284;19.310;2023-04-24T00:39:38;16.35;;;12.73;;
17818;SDS011;9034;50.284;19.310;2023-04-24T00:40:42;20.35;;;13.18;;
17818;SDS011;9034;50.284;19.310;2023-04-24T00:41:44;18.70;;;13.30;;
17818;SDS011;9034;50.284;19.310;2023-04-24T00:42:46;18.05;;;13.23;;
17818;SDS011;9034;50.284;19.310;2023-04-24T00:43:50;18.63;;;13.77;;
17818;SDS011;9034;50.284;19.310;2023-04-24T00:44:52;18.73;;;13.70;;
17818;SDS011;9034;50.284;19.310;2023-04-24T00:45:55;18.58;;;14.73;;
17818;SDS011;9034;50.284;19.310;2023-04-24T00:46:59;20.92;;;13.80;;
17818;SDS011;9034;50.284;19.310;2023-04-24T00:48:02;20.65;;;13.75;;
17818;SDS011;9034;50.284;19.310;2023-04-24T00:49:04;20.17;;;14.52;;
17818;SDS011;9034;50.284;19.310;2023-04-24T00:50:07;18.77;;;14.00;;
17818;SDS011;9034;50.284;19.310;2023-04-24T00:51:10;18.08;;;13.38;;
17818;SDS011;9034;50.284;19.310;2023-04-24T00:52:13;22.80;;;14.50;;
17818;SDS011;9034;50.284;19.310;2023-04-24T00:53:19;18.15;;;13.77;;
17818;SDS011;9034;50.284;19.310;2023-04-24T00:54:22;16.60;;;13.45;;
17818;SDS011;9034;50.284;19.310;2023-04-24T00:55:25;18.88;;;13.30;;
17818;SDS011;9034;50.284;19.310;2023-04-24T00:56:28;17.60;;;12.98;;
17818;SDS011;9034;50.284;19.310;2023-04-24T00:57:30;18.95;;;13.85;;
17818;SDS011;9034;50.284;19.310;2023-04-24T00:58:33;21.05;;;14.27;;
17818;SDS011;9034;50.284;19.310;2023-04-24T00:59:35;18.92;;;13.70;;
17818;SDS011;9034;50.284;19.310;2023-04-24T01:00:38;17.48;;;13.35;;
17818;SDS011;9034;50.284;19.310;2023-04-24T01:01:40;18.40;;;13.60;;
17818;SDS011;9034;50.284;19.310;2023-04-24T01:02:45;19.55;;;15.30;;
17818;SDS011;9034;50.284;19.310;2023-04-24T01:03:48;17.95;;;12.75;;
17818;SDS011;9034;50.284;19.310;2023-04-24T01:04:52;16.95;;;12.70;;
17818;SDS011;9034;50.284;19.310;2023-04-24T01:05:54;19.25;;;13.65;;
17818;SDS011;9034;50.284;19.310;2023-04-24T01:06:57;16.77;;;13.02;;
17818;SDS011;9034;50.284;19.310;2023-04-24T01:07:59;19.10;;;12.60;;
17818;SDS011;9034;50.284;19.310;2023-04-24T01:09:04;17.55;;;13.68;;
17818;SDS011;9034;50.284;19.310;2023-04-24T01:10:06;18.00;;;13.80;;
17818;SDS011;9034;50.284;19.310;2023-04-24T01:11:10;17.98;;;13.70;;
17818;SDS011;9034;50.284;19.310;2023-04-24T01:12:12;17.95;;;13.82;;
17818;SDS011;9034;50.284;19.310;2023-04-24T01:13:15;18.50;;;14.45;;
17818;SDS011;9034;50.284;19.310;2023-04-24T01:14:18;22.10;;;14.75;;
17818;SDS011;9034;50.284;19.310;2023-04-24T01:15:23;22.15;;;15.98;;
17818;SDS011;9034;50.284;19.310;2023-04-24T01:16:25;25.92;;;15.95;;
17818;SDS011;9034;50.284;19.310;2023-04-24T01:17:28;20.73;;;13.25;;
17818;SDS011;9034;50.284;19.310;2023-04-24T01:18:31;19.33;;;14.32;;
17818;SDS011;9034;50.284;19.310;2023-04-24T01:19:34;18.13;;;13.68;;
17818;SDS011;9034;50.284;19.310;2023-04-24T01:20:38;21.42;;;15.20;;
17818;SDS011;9034;50.284;19.310;2023-04-24T01:21:42;22.10;;;14.55;;
17818;SDS011;9034;50.284;19.310;2023-04-24T01:22:46;21.90;;;14.40;;
17818;SDS011;9034;50.284;19.310;2023-04-24T01:23:49;21.10;;;14.65;;
17818;SDS011;9034;50.284;19.310;2023-04-24T01:24:52;18.45;;;14.38;;
17818;SDS011;9034;50.284;19.310;2023-04-24T01:25:55;20.73;;;13.35;;
17818;SDS011;9034;50.284;19.310;2023-04-24T01:26:59;18.65;;;13.60;;
17818;SDS011;9034;50.284;19.310;2023-04-24T01:28:03;22.33;;;14.70;;
17818;SDS011;9034;50.284;19.310;2023-04-24T01:29:05;18.45;;;14.57;;
17818;SDS011;9034;50.284;19.310;2023-04-24T01:30:09;17.23;;;13.85;;
17818;SDS011;9034;50.284;19.310;2023-04-24T01:31:11;20.92;;;14.40;;
17818;SDS011;9034;50.284;19.310;2023-04-24T01:32:14;17.88;;;13.23;;
17818;SDS011;9034;50.284;19.310;2023-04-24T01:33:16;23.60;;;13.68;;
17818;SDS011;9034;50.284;19.310;2023-04-24T01:34:19;19.52;;;13.77;;
17818;SDS011;9034;50.284;19.310;2023-04-24T01:35:21;19.00;;;13.77;;
17818;SDS011;9034;50.284;19.310;2023-04-24T01:36:24;22.80;;;14.70;;
17818;SDS011;9034;50.284;19.310;2023-04-24T01:37:28;23.23;;;14.57;;
17818;SDS011;9034;50.284;19.310;2023-04-24T01:38:32;24.40;;;17.52;;
17818;SDS011;9034;50.284;19.310;2023-04-24T01:39:34;21.90;;;15.85;;
17818;SDS011;9034;50.284;19.310;2023-04-24T01:40:37;23.95;;;16.88;;
17818;SDS011;9034;50.284;19.310;2023-04-24T01:41:39;24.20;;;17.02;;
17818;SDS011;9034;50.284;19.310;2023-04-24T01:42:42;20.70;;;16.13;;
17818;SDS011;9034;50.284;19.310;2023-04-24T01:43:44;20.08;;;16.15;;
17818;SDS011;9034;50.284;19.310;2023-04-24T01:44:47;24.67;;;15.95;;
17818;SDS011;9034;50.284;19.310;2023-04-24T01:45:49;22.02;;;15.57;;
17818;SDS011;9034;50.284;19.310;2023-04-24T01:46:52;21.25;;;15.48;;
17818;SDS011;9034;50.284;19.310;2023-04-24T01:47:55;17.42;;;13.80;;
17818;SDS011;9034;50.284;19.310;2023-04-24T01:48:59;21.50;;;15.15;;
17818;SDS011;9034;50.284;19.310;2023-04-24T01:50:02;21.25;;;14.10;;
17818;SDS011;9034;50.284;19.310;2023-04-24T01:51:06;20.90;;;14.60;;
17818;SDS011;9034;50.284;19.310;2023-04-24T01:52:07;20.02;;;14.70;;
17818;SDS011;9034;50.284;19.310;2023-04-24T01:53:10;21.25;;;14.13;;
17818;SDS011;9034;50.284;19.310;2023-04-24T01:54:14;20.15;;;14.20;;
17818;SDS011;9034;50.284;19.310;2023-04-24T01:55:17;19.95;;;14.73;;
17818;SDS011;9034;50.284;19.310;2023-04-24T01:56:19;20.25;;;14.07;;
17818;SDS011;9034;50.284;19.310;2023-04-24T01:57:22;25.85;;;16.13;;
17818;SDS011;9034;50.284;19.310;2023-04-24T01:58:24;21.83;;;15.77;;
17818;SDS011;9034;50.284;19.310;2023-04-24T01:59:27;24.88;;;14.70;;
17818;SDS011;9034;50.284;19.310;2023-04-24T02:00:29;25.05;;;15.38;;
17818;SDS011;9034;50.284;19.310;2023-04-24T02:01:33;26.85;;;14.82;;
17818;SDS011;9034;50.284;19.310;2023-04-24T02:02:36;25.52;;;15.52;;
17818;SDS011;9034;50.284;19.310;2023-04-24T02:03:39;22.70;;;15.23;;
17818;SDS011;9034;50.284;19.310;2023-04-24T02:04:41;26.70;;;14.63;;
17818;SDS011;9034;50.284;19.310;2023-04-24T02:05:44;22.75;;;14.50;;
17818;SDS011;9034;50.284;19.310;2023-04-24T02:06:46;23.67;;;15.32;;
17818;SDS011;9034;50.284;19.310;2023-04-24T02:07:50;24.30;;;14.93;;
17818;SDS011;9034;50.284;19.310;2023-04-24T02:08:52;23.30;;;14.00;;
17818;SDS011;9034;50.284;19.310;2023-04-24T02:09:57;24.17;;;16.35;;
17818;SDS011;9034;50.284;19.310;2023-04-24T02:10:59;23.13;;;15.70;;
17818;SDS011;9034;50.284;19.310;2023-04-24T02:12:04;23.92;;;16.10;;
17818;SDS011;9034;50.284;19.310;2023-04-24T02:13:06;23.48;;;13.98;;
17818;SDS011;9034;50.284;19.310;2023-04-24T02:14:09;24.02;;;15.57;;
17818;SDS011;9034;50.284;19.310;2023-04-24T02:15:13;21.20;;;14.88;;
17818;SDS011;9034;50.284;19.310;2023-04-24T02:16:16;25.42;;;15.43;;
17818;SDS011;9034;50.284;19.310;2023-04-24T02:17:18;27.80;;;18.25;;
17818;SDS011;9034;50.284;19.310;2023-04-24T02:18:21;30.23;;;18.40;;
17818;SDS011;9034;50.284;19.310;2023-04-24T02:19:24;22.95;;;15.52;;
17818;SDS011;9034;50.284;19.310;2023-04-24T02:20:27;26.08;;;18.58;;
17818;SDS011;9034;50.284;19.310;2023-04-24T02:21:29;21.15;;;15.20;;
17818;SDS011;9034;50.284;19.310;2023-04-24T02:22:33;28.08;;;17.50;;
17818;SDS011;9034;50.284;19.310;2023-04-24T02:23:35;23.35;;;14.77;;
17818;SDS011;9034;50.284;19.310;2023-04-24T02:24:39;26.42;;;17.15;;
17818;SDS011;9034;50.284;19.310;2023-04-24T02:25:42;25.67;;;16.75;;
17818;SDS011;9034;50.284;19.310;2023-04-24T02:26:45;26.60;;;16.65;;
17818;SDS011;9034;50.284;19.310;2023-04-24T02:27:46;29.33;;;16.45;;
17818;SDS011;9034;50.284;19.310;2023-04-24T02:28:49;30.83;;;17.48;;
17818;SDS011;9034;50.284;19.310;2023-04-24T02:29:53;25.63;;;16.77;;
17818;SDS011;9034;50.284;19.310;2023-04-24T02:30:56;31.08;;;18.90;;
17818;SDS011;9034;50.284;19.310;2023-04-24T02:31:58;30.23;;;16.83;;
17818;SDS011;9034;50.284;19.310;2023-04-24T02:33:01;22.58;;;16.08;;
17818;SDS011;9034;50.284;19.310;2023-04-24T02:34:04;29.88;;;16.63;;
17818;SDS011;9034;50.284;19.310;2023-04-24T02:35:07;22.88;;;16.20;;
17818;SDS011;9034;50.284;19.310;2023-04-24T02:36:10;23.65;;;15.60;;
17818;SDS011;9034;50.284;19.310;2023-04-24T02:37:13;25.25;;;15.38;;
17818;SDS011;9034;50.284;19.310;2023-04-24T02:38:17;23.95;;;16.23;;
17818;SDS011;9034;50.284;19.310;2023-04-24T02:39:20;20.65;;;15.13;;
17818;SDS011;9034;50.284;19.310;2023-04-24T02:40:22;24.02;;;16.15;;
17818;SDS011;9034;50.284;19.310;2023-04-24T02:41:26;26.42;;;16.08;;
17818;SDS011;9034;50.284;19.310;2023-04-24T02:42:33;24.88;;;15.27;;
17818;SDS011;9034;50.284;19.310;2023-04-24T02:43:36;23.48;;;15.18;;
17818;SDS011;9034;50.284;19.310;2023-04-24T02:44:38;22.88;;;15.55;;
17818;SDS011;9034;50.284;19.310;2023-04-24T02:45:40;21.60;;;15.35;;
17818;SDS011;9034;50.284;19.310;2023-04-24T02:46:43;24.50;;;15.82;;
17818;SDS011;9034;50.284;19.310;2023-04-24T02:47:46;23.02;;;16.02;;
17818;SDS011;9034;50.284;19.310;2023-04-24T02:48:47;24.83;;;15.60;;
17818;SDS011;9034;50.284;19.310;2023-04-24T02:49:50;25.10;;;15.63;;
17818;SDS011;9034;50.284;19.310;2023-04-24T02:50:52;23.33;;;14.38;;
17818;SDS011;9034;50.284;19.310;2023-04-24T02:51:55;23.75;;;15.50;;
17818;SDS011;9034;50.284;19.310;2023-04-24T02:52:57;23.90;;;15.20;;
17818;SDS011;9034;50.284;19.310;2023-04-24T02:54:00;24.58;;;15.57;;
17818;SDS011;9034;50.284;19.310;2023-04-24T02:55:02;23.90;;;16.67;;
17818;SDS011;9034;50.284;19.310;2023-04-24T02:56:05;22.15;;;14.68;;
17818;SDS011;9034;50.284;19.310;2023-04-24T02:57:08;21.02;;;15.20;;
17818;SDS011;9034;50.284;19.310;2023-04-24T02:58:14;26.15;;;15.90;;
17818;SDS011;9034;50.284;19.310;2023-04-24T02:59:16;21.70;;;14.02;;
17818;SDS011;9034;50.284;19.310;2023-04-24T03:00:19;22.92;;;15.77;;
17818;SDS011;9034;50.284;19.310;2023-04-24T03:01:21;23.65;;;15.55;;
17818;SDS011;9034;50.284;19.310;2023-04-24T03:02:24;24.38;;;16.02;;
17818;SDS011;9034;50.284;19.310;2023-04-24T03:03:26;24.05;;;15.63;;
17818;SDS011;9034;50.284;19.310;2023-04-24T03:04:29;22.48;;;15.15;;
17818;SDS011;9034;50.284;19.310;2023-04-24T03:05:31;22.85;;;15.45;;
17818;SDS011;9034;50.284;19.310;2023-04-24T03:06:34;22.38;;;15.75;;
17818;SDS011;9034;50.284;19.310;2023-04-24T03:07:37;22.30;;;15.55;;
17818;SDS011;9034;50.284;19.310;2023-04-24T03:08:40;20.63;;;14.18;;
17818;SDS011;9034;50.284;19.310;2023-04-24T03:09:45;31.25;;;14.88;;
17818;SDS011;9034;50.284;19.310;2023-04-24T03:10:49;25.00;;;15.80;;
17818;SDS011;9034;50.284;19.310;2023-04-24T03:11:51;28.85;;;15.30;;
17818;SDS011;9034;50.284;19.310;2023-04-24T03:12:55;34.83;;;17.33;;
17818;SDS011;9034;50.284;19.310;2023-04-24T03:13:57;29.15;;;16.35;;
17818;SDS011;9034;50.284;19.310;2023-04-24T03:15:00;32.08;;;17.50;;
17818;SDS011;9034;50.284;19.310;2023-04-24T03:16:02;26.98;;;16.13;;
17818;SDS011;9034;50.284;19.310;2023-04-24T03:17:05;32.90;;;17.15;;
17818;SDS011;9034;50.284;19.310;2023-04-24T03:18:07;31.50;;;16.85;;
17818;SDS011;9034;50.284;19.310;2023-04-24T03:19:10;31.60;;;16.85;;
17818;SDS011;9034;50.284;19.310;2023-04-24T03:20:21;24.05;;;15.07;;
17818;SDS011;9034;50.284;19.310;2023-04-24T03:21:24;28.13;;;15.40;;
17818;SDS011;9034;50.284;19.310;2023-04-24T03:22:26;23.98;;;14.80;;
17818;SDS011;9034;50.284;19.310;2023-04-24T03:23:29;25.42;;;14.93;;
17818;SDS011;9034;50.284;19.310;2023-04-24T03:24:31;26.27;;;15.23;;
17818;SDS011;9034;50.284;19.310;2023-04-24T03:25:34;26.77;;;14.27;;
17818;SDS011;9034;50.284;19.310;2023-04-24T03:26:36;22.92;;;14.38;;
17818;SDS011;9034;50.284;19.310;2023-04-24T03:28:08;20.15;;;13.73;;
17818;SDS011;9034;50.284;19.310;2023-04-24T03:29:21;21.52;;;13.77;;
17818;SDS011;9034;50.284;19.310;2023-04-24T03:30:23;25.67;;;15.15;;
17818;SDS011;9034;50.284;19.310;2023-04-24T03:31:31;30.38;;;15.00;;
17818;SDS011;9034;50.284;19.310;2023-04-24T03:32:32;28.30;;;14.57;;
17818;SDS011;9034;50.284;19.310;2023-04-24T03:33:36;26.70;;;13.98;;
17818;SDS011;9034;50.284;19.310;2023-04-24T03:34:38;29.77;;;14.73;;
17818;SDS011;9034;50.284;19.310;2023-04-24T03:35:44;27.20;;;14.77;;
17818;SDS011;9034;50.284;19.310;2023-04-24T03:36:47;23.33;;;14.65;;
17818;SDS011;9034;50.284;19.310;2023-04-24T03:37:50;27.50;;;15.30;;
17818;SDS011;9034;50.284;19.310;2023-04-24T03:39:10;22.80;;;13.70;;
17818;SDS011;9034;50.284;19.310;2023-04-24T03:40:19;29.48;;;13.93;;
17818;SDS011;9034;50.284;19.310;2023-04-24T03:41:21;27.77;;;14.45;;
17818;SDS011;9034;50.284;19.310;2023-04-24T03:42:28;27.00;;;13.75;;
17818;SDS011;9034;50.284;19.310;2023-04-24T03:43:32;27.13;;;13.70;;
17818;SDS011;9034;50.284;19.310;2023-04-24T03:44:37;23.45;;;14.18;;
17818;SDS011;9034;50.284;19.310;2023-04-24T03:45:41;26.88;;;13.73;;
17818;SDS011;9034;50.284;19.310;2023-04-24T03:46:45;22.35;;;14.35;;
17818;SDS011;9034;50.284;19.310;2023-04-24T03:47:47;24.85;;;14.82;;
17818;SDS011;9034;50.284;19.310;2023-04-24T03:48:50;31.65;;;14.85;;
17818;SDS011;9034;50.284;19.310;2023-04-24T03:49:55;25.27;;;13.07;;
17818;SDS011;9034;50.284;19.310;2023-04-24T03:50:58;22.55;;;14.02;;
17818;SDS011;9034;50.284;19.310;2023-04-24T03:52:00;25.88;;;13.93;;
17818;SDS011;9034;50.284;19.310;2023-04-24T03:53:04;25.48;;;13.32;;
17818;SDS011;9034;50.284;19.310;2023-04-24T03:54:13;24.92;;;14.60;;
17818;SDS011;9034;50.284;19.310;2023-04-24T03:55:16;25.00;;;12.63;;
17818;SDS011;9034;50.284;19.310;2023-04-24T03:56:21;17.63;;;11.95;;
17818;SDS011;9034;50.284;19.310;2023-04-24T03:57:24;19.80;;;12.02;;
17818;SDS011;9034;50.284;19.310;2023-04-24T03:58:42;29.08;;;15.80;;
17818;SDS011;9034;50.284;19.310;2023-04-24T03:59:45;22.73;;;14.50;;
17818;SDS011;9034;50.284;19.310;2023-04-24T04:00:51;23.65;;;13.90;;
17818;SDS011;9034;50.284;19.310;2023-04-24T04:02:14;21.60;;;14.15;;
17818;SDS011;9034;50.284;19.310;2023-04-24T04:03:18;30.30;;;14.73;;
17818;SDS011;9034;50.284;19.310;2023-04-24T04:04:20;23.70;;;13.68;;
17818;SDS011;9034;50.284;19.310;2023-04-24T04:05:24;28.73;;;13.73;;
17818;SDS011;9034;50.284;19.310;2023-04-24T04:06:27;23.55;;;14.30;;
17818;SDS011;9034;50.284;19.310;2023-04-24T04:07:31;24.60;;;14.70;;
17818;SDS011;9034;50.284;19.310;2023-04-24T04:08:33;23.25;;;14.40;;
17818;SDS011;9034;50.284;19.310;2023-04-24T04:09:36;26.42;;;16.40;;
17818;SDS011;9034;50.284;19.310;2023-04-24T04:10:39;23.45;;;15.13;;
17818;SDS011;9034;50.284;19.310;2023-04-24T04:11:41;24.90;;;15.50;;
17818;SDS011;9034;50.284;19.310;2023-04-24T04:12:43;20.88;;;14.60;;
17818;SDS011;9034;50.284;19.310;2023-04-24T04:13:47;22.00;;;15.85;;
17818;SDS011;9034;50.284;19.310;2023-04-24T04:14:53;23.77;;;15.95;;
17818;SDS011;9034;50.284;19.310;2023-04-24T04:15:55;27.10;;;15.57;;
17818;SDS011;9034;50.284;19.310;2023-04-24T04:16:58;26.55;;;14.95;;
17818;SDS011;9034;50.284;19.310;2023-04-24T04:18:00;24.40;;;15.32;;
17818;SDS011;9034;50.284;19.310;2023-04-24T04:19:04;22.85;;;14.25;;
17818;SDS011;9034;50.284;19.310;2023-04-24T04:20:07;19.50;;;13.57;;
17818;SDS011;9034;50.284;19.310;2023-04-24T04:21:13;22.23;;;13.95;;
17818;SDS011;9034;50.284;19.310;2023-04-24T04:22:15;22.42;;;13.68;;
17818;SDS011;9034;50.284;19.310;2023-04-24T04:23:22;21.05;;;13.02;;
17818;SDS011;9034;50.284;19.310;2023-04-24T04:24:46;18.52;;;13.23;;
17818;SDS011;9034;50.284;19.310;2023-04-24T04:25:49;19.35;;;12.40;;
17818;SDS011;9034;50.284;19.310;2023-04-24T04:26:53;22.42;;;12.15;;
17818;SDS011;9034;50.284;19.310;2023-04-24T04:28:04;20.08;;;12.05;;
17818;SDS011;9034;50.284;19.310;2023-04-24T04:29:07;16.23;;;11.45;;
17818;SDS011;9034;50.284;19.310;2023-04-24T04:30:15;16.55;;;11.40;;
17818;SDS011;9034;50.284;19.310;2023-04-24T04:31:30;18.90;;;12.20;;
17818;SDS011;9034;50.284;19.310;2023-04-24T04:32:36;18.02;;;11.60;;
17818;SDS011;9034;50.284;19.310;2023-04-24T04:33:39;18.42;;;10.80;;
17818;SDS011;9034;50.284;19.310;2023-04-24T04:34:43;18.85;;;11.68;;
17818;SDS011;9034;50.284;19.310;2023-04-24T04:35:47;20.33;;;11.43;;
17818;SDS011;9034;50.284;19.310;2023-04-24T04:36:50;18.35;;;11.02;;
17818;SDS011;9034;50.284;19.310;2023-04-24T04:38:03;23.35;;;11.77;;
17818;SDS011;9034;50.284;19.310;2023-04-24T04:39:29;16.35;;;11.10;;
17818;SDS011;9034;50.284;19.310;2023-04-24T04:40:41;18.48;;;11.00;;
17818;SDS011;9034;50.284;19.310;2023-04-24T04:41:45;17.60;;;11.30;;
17818;SDS011;9034;50.284;19.310;2023-04-24T04:42:51;21.38;;;11.65;;
17818;SDS011;9034;50.284;19.310;2023-04-24T04:43:55;15.52;;;11.43;;
17818;SDS011;9034;50.284;19.310;2023-04-24T04:45:02;18.73;;;11.07;;
17818;SDS011;9034;50.284;19.310;2023-04-24T04:46:16;16.08;;;10.23;;
17818;SDS011;9034;50.284;19.310;2023-04-24T04:47:33;17.75;;;11.65;;
17818;SDS011;9034;50.284;19.310;2023-04-24T04:48:36;15.98;;;11.77;;
17818;SDS011;9034;50.284;19.310;2023-04-24T04:49:40;16.95;;;11.80;;
17818;SDS011;9034;50.284;19.310;2023-04-24T04:50:50;17.17;;;11.52;;
17818;SDS011;9034;50.284;19.310;2023-04-24T04:51:55;18.13;;;11.55;;
17818;SDS011;9034;50.284;19.310;2023-04-24T04:52:59;16.58;;;11.55;;
17818;SDS011;9034;50.284;19.310;2023-04-24T04:54:07;16.40;;;11.07;;
17818;SDS011;9034;50.284;19.310;2023-04-24T04:55:10;19.15;;;10.52;;
17818;SDS011;9034;50.284;19.310;2023-04-24T04:56:34;17.52;;;11.40;;
17818;SDS011;9034;50.284;19.310;2023-04-24T04:57:37;17.02;;;10.95;;
17818;SDS011;9034;50.284;19.310;2023-04-24T04:58:39;15.68;;;10.68;;
17818;SDS011;9034;50.284;19.310;2023-04-24T04:59:45;19.15;;;10.93;;
17818;SDS011;9034;50.284;19.310;2023-04-24T05:00:57;18.48;;;10.65;;
17818;SDS011;9034;50.284;19.310;2023-04-24T05:02:11;17.48;;;11.85;;
17818;SDS011;9034;50.284;19.310;2023-04-24T05:03:13;20.80;;;12.13;;
17818;SDS011;9034;50.284;19.310;2023-04-24T05:04:26;20.80;;;11.18;;
17818;SDS011;9034;50.284;19.310;2023-04-24T05:05:30;23.88;;;12.48;;
17818;SDS011;9034;50.284;19.310;2023-04-24T05:06:31;35.70;;;16.55;;
17818;SDS011;9034;50.284;19.310;2023-04-24T05:07:34;31.08;;;16.05;;
17818;SDS011;9034;50.284;19.310;2023-04-24T05:08:36;36.22;;;15.65;;
17818;SDS011;9034;50.284;19.310;2023-04-24T05:09:42;31.98;;;14.15;;
17818;SDS011;9034;50.284;19.310;2023-04-24T05:10:46;32.13;;;14.30;;
17818;SDS011;9034;50.284;19.310;2023-04-24T05:11:49;27.48;;;12.40;;
17818;SDS011;9034;50.284;19.310;2023-04-24T05:12:51;27.60;;;12.95;;
17818;SDS011;9034;50.284;19.310;2023-04-24T05:13:54;21.95;;;11.30;;
17818;SDS011;9034;50.284;19.310;2023-04-24T05:15:06;24.15;;;10.85;;
17818;SDS011;9034;50.284;19.310;2023-04-24T05:16:12;25.58;;;11.05;;
17818;SDS011;9034;50.284;19.310;2023-04-24T05:17:14;19.02;;;10.35;;
17818;SDS011;9034;50.284;19.310;2023-04-24T05:18:18;20.48;;;10.63;;
17818;SDS011;9034;50.284;19.310;2023-04-24T05:19:20;15.55;;;10.25;;
17818;SDS011;9034;50.284;19.310;2023-04-24T05:20:24;24.02;;;10.27;;
17818;SDS011;9034;50.284;19.310;2023-04-24T05:21:26;25.25;;;11.25;;
17818;SDS011;9034;50.284;19.310;2023-04-24T05:22:29;18.73;;;10.95;;
17818;SDS011;9034;50.284;19.310;2023-04-24T05:23:31;23.73;;;11.18;;
17818;SDS011;9034;50.284;19.310;2023-04-24T05:24:35;23.52;;;10.75;;
17818;SDS011;9034;50.284;19.310;2023-04-24T05:25:49;20.40;;;10.10;;
17818;SDS011;9034;50.284;19.310;2023-04-24T05:26:53;19.88;;;10.75;;
17818;SDS011;9034;50.284;19.310;2023-04-24T05:28:02;20.88;;;11.45;;
17818;SDS011;9034;50.284;19.310;2023-04-24T05:29:07;20.48;;;11.38;;
17818;SDS011;9034;50.284;19.310;2023-04-24T05:30:09;25.98;;;11.13;;
17818;SDS011;9034;50.284;19.310;2023-04-24T05:31:13;21.17;;;10.80;;
17818;SDS011;9034;50.284;19.310;2023-04-24T05:32:15;19.77;;;13.05;;
17818;SDS011;9034;50.284;19.310;2023-04-24T05:33:19;31.42;;;13.25;;
17818;SDS011;9034;50.284;19.310;2023-04-24T05:34:21;28.10;;;12.80;;
17818;SDS011;9034;50.284;19.310;2023-04-24T05:35:28;16.52;;;9.65;;
17818;SDS011;9034;50.284;19.310;2023-04-24T05:36:30;19.95;;;9.90;;
17818;SDS011;9034;50.284;19.310;2023-04-24T05:37:33;17.52;;;8.68;;
17818;SDS011;9034;50.284;19.310;2023-04-24T05:38:35;19.67;;;8.32;;
17818;SDS011;9034;50.284;19.310;2023-04-24T05:39:38;11.20;;;6.28;;
17818;SDS011;9034;50.284;19.310;2023-04-24T05:40:42;10.90;;;5.80;;
17818;SDS011;9034;50.284;19.310;2023-04-24T05:41:45;10.10;;;6.38;;
17818;SDS011;9034;50.284;19.310;2023-04-24T05:42:47;17.75;;;8.00;;
17818;SDS011;9034;50.284;19.310;2023-04-24T05:43:49;9.65;;;5.95;;
17818;SDS011;9034;50.284;19.310;2023-04-24T05:44:52;9.90;;;5.35;;
17818;SDS011;9034;50.284;19.310;2023-04-24T05:45:58;9.73;;;5.57;;
17818;SDS011;9034;50.284;19.310;2023-04-24T05:47:01;7.97;;;4.95;;
17818;SDS011;9034;50.284;19.310;2023-04-24T05:48:05;17.23;;;5.68;;
17818;SDS011;9034;50.284;19.310;2023-04-24T05:49:07;8.77;;;5.30;;
17818;SDS011;9034;50.284;19.310;2023-04-24T05:50:10;10.80;;;4.95;;
17818;SDS011;9034;50.284;19.310;2023-04-24T05:51:12;11.27;;;5.40;;
17818;SDS011;9034;50.284;19.310;2023-04-24T05:52:15;7.05;;;4.55;;
17818;SDS011;9034;50.284;19.310;2023-04-24T05:53:17;10.57;;;5.53;;
17818;SDS011;9034;50.284;19.310;2023-04-24T05:54:20;11.10;;;5.07;;
17818;SDS011;9034;50.284;19.310;2023-04-24T05:55:22;7.38;;;4.90;;
17818;SDS011;9034;50.284;19.310;2023-04-24T05:56:28;16.15;;;6.13;;
17818;SDS011;9034;50.284;19.310;2023-04-24T05:57:31;9.73;;;4.47;;
17818;SDS011;9034;50.284;19.310;2023-04-24T05:58:37;10.35;;;5.05;;
17818;SDS011;9034;50.284;19.310;2023-04-24T05:59:40;8.60;;;5.45;;
17818;SDS011;9034;50.284;19.310;2023-04-24T06:00:44;15.98;;;6.40;;
17818;SDS011;9034;50.284;19.310;2023-04-24T06:01:48;9.40;;;5.10;;
17818;SDS011;9034;50.284;19.310;2023-04-24T06:02:54;7.05;;;6.07;;
17818;SDS011;9034;50.284;19.310;2023-04-24T06:03:58;8.70;;;4.90;;
17818;SDS011;9034;50.284;19.310;2023-04-24T06:05:01;10.30;;;5.73;;
17818;SDS011;9034;50.284;19.310;2023-04-24T06:06:04;13.17;;;5.90;;
17818;SDS011;9034;50.284;19.310;2023-04-24T06:07:07;17.03;;;5.60;;
17818;SDS011;9034;50.284;19.310;2023-04-24T06:08:09;13.03;;;5.53;;
17818;SDS011;9034;50.284;19.310;2023-04-24T06:09:13;12.57;;;5.20;;
17818;SDS011;9034;50.284;19.310;2023-04-24T06:10:18;12.33;;;4.83;;
17818;SDS011;9034;50.284;19.310;2023-04-24T06:11:21;10.03;;;4.77;;
17818;SDS011;9034;50.284;19.310;2023-04-24T06:12:24;15.50;;;5.00;;
17818;SDS011;9034;50.284;19.310;2023-04-24T06:13:33;12.10;;;5.70;;
17818;SDS011;9034;50.284;19.310;2023-04-24T06:15:08;10.57;;;4.93;;
17818;SDS011;9034;50.284;19.310;2023-04-24T06:16:27;8.70;;;5.60;;